Hamad International Airport

OTHH | DOH

Doha , Baladiyat-ad-Dawḩah , Qatar

Saturday, September 21st, 2019 | 14:31

Weather

OTHH 211100Z 11010KT CAVOK 38/16 Q1002 NOSIG

Charts

No Charts Available

Gates

228 Available

Runways

2 Available

Events

No events for this airport


New event